Time;durP1;ratioP1;P1;durP2;ratioP2;P2;SDS_P1;SDS_P2;PMS_P1;PMS_P2;Temp;Humidity;BMP_temperature;BMP_pressure;BME280_temperature;BME280_humidity;BME280_pressure;Samples;Min_cycle;Max_cycle;Signal;HPM_P1;HPM_P2
2023/08/07 00:00:55;;;;;;;;;;;14.70;99.90;;;;;;5021996;28;19979;-78
2023/08/07 00:03:20;;;;;;;;;;;14.70;99.90;;;;;;5038664;28;19925;-78
2023/08/07 00:05:46;;;;;;;;;;;14.70;99.90;;;;;;5055177;28;19929;-78
2023/08/07 00:08:12;;;;;;;;;;;14.70;99.90;;;;;;5038191;28;20002;-77
2023/08/07 00:10:38;;;;;;;;;;;14.70;99.90;;;;;;5038851;28;19989;-77
2023/08/07 00:13:03;;;;;;;;;;;14.70;99.90;;;;;;5049192;28;19925;-77
2023/08/07 00:15:29;;;;;;;;;;;14.60;99.90;;;;;;5055433;28;19947;-77
2023/08/07 00:17:54;;;;;;;;;;;14.70;99.90;;;;;;5037828;28;19925;-78
2023/08/07 00:20:20;;;;;;;;;;;14.60;99.90;;;;;;5038439;28;19929;-78
2023/08/07 00:22:46;;;;;;;;;;;14.60;99.90;;;;;;5054426;28;19987;-78
2023/08/07 00:25:11;;;;;;;;;;;14.70;99.90;;;;;;5054438;28;19996;-78
2023/08/07 00:27:37;;;;;;;;;;;14.60;99.90;;;;;;5038527;28;19932;-78
2023/08/07 00:30:03;;;;;;;;;;;14.70;99.90;;;;;;5037921;28;19925;-78
2023/08/07 00:32:28;;;;;;;;;;;14.70;99.90;;;;;;5022009;28;19929;-78
2023/08/07 00:34:54;;;;;;;;;;;14.70;99.90;;;;;;5037888;28;19925;-78
2023/08/07 00:37:19;;;;;;;;;;;14.70;99.90;;;;;;5038269;28;20825;-77
2023/08/07 00:39:45;;;;;;;;;;;14.60;99.90;;;;;;5021788;28;19929;-78
2023/08/07 00:42:10;;;;;;;;;;;14.70;99.90;;;;;;5021352;28;19955;-78
2023/08/07 00:44:36;;;;;;;;;;;14.70;99.90;;;;;;5038310;28;19980;-78
2023/08/07 00:47:02;;;;;;;;;;;14.70;99.90;;;;;;5020606;28;19929;-78
2023/08/07 00:49:27;;;;;;;;;;;14.70;99.90;;;;;;5054948;28;19932;-78
2023/08/07 00:51:53;;;;;;;;;;;14.70;99.90;;;;;;5037153;28;19932;-78
2023/08/07 00:54:20;;;;;;;;;;;14.70;99.90;;;;;;5054633;28;19940;-78
2023/08/07 00:56:46;;;;;;;;;;;14.70;99.90;;;;;;5037653;28;20335;-78
2023/08/07 00:59:13;;;;;;;;;;;14.60;99.90;;;;;;5020937;28;19979;-78
2023/08/07 01:01:38;;;;;;;;;;;14.70;99.90;;;;;;5037699;28;19988;-78
2023/08/07 01:04:04;;;;;;;;;;;14.60;99.90;;;;;;5037019;28;19933;-78
2023/08/07 01:06:29;;;;;;;;;;;14.60;99.90;;;;;;5038125;28;20009;-78
2023/08/07 01:08:56;;;;;;;;;;;14.60;99.90;;;;;;5020170;28;20300;-78
2023/08/07 01:12:00;;;;;;;;;;;14.60;99.90;;;;;;5054741;28;20045;-77
2023/08/07 01:14:32;;;;;;;;;;;14.60;99.90;;;;;;4980995;28;19967;-77
2023/08/07 01:17:00;;;;;;;;;;;14.70;99.90;;;;;;4979703;28;19930;-77
2023/08/07 01:19:30;;;;;;;;;;;14.70;99.90;;;;;;4987652;28;19936;-77
2023/08/07 01:22:05;;;;;;;;;;;14.70;99.90;;;;;;5037085;28;19948;-77
2023/08/07 01:24:31;;;;;;;;;;;14.70;99.90;;;;;;5037080;28;20035;-77
2023/08/07 01:26:58;;;;;;;;;;;14.70;99.90;;;;;;5037896;28;19940;-77
2023/08/07 01:29:31;;;;;;;;;;;14.70;99.90;;;;;;5036828;28;19925;-77
2023/08/07 01:31:59;;;;;;;;;;;14.70;99.90;;;;;;5037873;28;19925;-77
2023/08/07 01:34:25;;;;;;;;;;;14.70;99.90;;;;;;5020038;28;19925;-77
2023/08/07 01:36:52;;;;;;;;;;;14.60;99.90;;;;;;5037660;28;19941;-77
2023/08/07 01:39:19;;;;;;;;;;;14.60;99.90;;;;;;5020409;28;19952;-77
2023/08/07 01:41:44;;;;;;;;;;;14.60;99.90;;;;;;5020770;28;19933;-77
2023/08/07 01:44:10;;;;;;;;;;;14.60;99.90;;;;;;5037655;28;19925;-78
2023/08/07 01:46:36;;;;;;;;;;;14.60;99.90;;;;;;5036215;28;19925;-77
2023/08/07 01:49:01;;;;;;;;;;;14.60;99.90;;;;;;5037568;28;19979;-77
2023/08/07 01:51:27;;;;;;;;;;;14.60;99.90;;;;;;5036165;28;19925;-77
2023/08/07 01:53:53;;;;;;;;;;;14.60;99.90;;;;;;5054351;28;19925;-77
2023/08/07 01:56:18;;;;;;;;;;;14.60;99.90;;;;;;5036279;28;20386;-77
2023/08/07 01:58:44;;;;;;;;;;;14.60;99.90;;;;;;5037091;28;20373;-77
2023/08/07 02:01:09;;;;;;;;;;;14.60;99.90;;;;;;5037045;28;20075;-77
2023/08/07 02:03:35;;;;;;;;;;;14.50;99.90;;;;;;5036933;28;19925;-77
2023/08/07 02:06:01;;;;;;;;;;;14.60;99.90;;;;;;5020842;28;19925;-77
2023/08/07 02:08:27;;;;;;;;;;;14.60;99.90;;;;;;5036368;28;19925;-78
2023/08/07 02:10:53;;;;;;;;;;;14.50;99.90;;;;;;5037478;28;19938;-77
2023/08/07 02:13:18;;;;;;;;;;;14.50;99.90;;;;;;5036490;28;20583;-77
2023/08/07 02:15:44;;;;;;;;;;;14.50;99.90;;;;;;5053187;28;19925;-78
2023/08/07 02:18:09;;;;;;;;;;;14.50;99.90;;;;;;5053710;28;19925;-79
2023/08/07 02:20:35;;;;;;;;;;;14.40;99.90;;;;;;5036456;28;19932;-78
2023/08/07 02:23:00;;;;;;;;;;;14.40;99.90;;;;;;5021142;28;20656;-78
2023/08/07 02:25:26;;;;;;;;;;;14.40;99.90;;;;;;5036530;28;19936;-78
2023/08/07 02:27:52;;;;;;;;;;;14.30;99.90;;;;;;5036802;28;19929;-78
2023/08/07 02:30:17;;;;;;;;;;;14.30;99.90;;;;;;5036368;28;19929;-78
2023/08/07 02:32:44;;;;;;;;;;;14.20;99.90;;;;;;5053749;28;19988;-78
2023/08/07 02:35:11;;;;;;;;;;;14.20;99.90;;;;;;5052892;28;19933;-78
2023/08/07 02:37:36;;;;;;;;;;;14.10;99.90;;;;;;5036514;28;19931;-78
2023/08/07 02:40:02;;;;;;;;;;;14.10;99.90;;;;;;5036061;28;19976;-78
2023/08/07 02:42:27;;;;;;;;;;;14.10;99.90;;;;;;5033972;28;19929;-77
2023/08/07 02:44:53;;;;;;;;;;;14.10;99.90;;;;;;5037197;28;19948;-78
2023/08/07 02:47:19;;;;;;;;;;;14.10;99.90;;;;;;5039048;28;20634;-78
2023/08/07 02:49:44;;;;;;;;;;;14.00;99.90;;;;;;5040271;28;19971;-77
2023/08/07 02:52:10;;;;;;;;;;;14.00;99.90;;;;;;5040122;28;19980;-78
2023/08/07 02:54:35;;;;;;;;;;;14.00;99.90;;;;;;5023431;28;19925;-77
2023/08/07 02:57:01;;;;;;;;;;;14.00;99.90;;;;;;5029609;28;19925;-78
2023/08/07 02:59:26;;;;;;;;;;;13.90;99.90;;;;;;5039227;28;19997;-77
2023/08/07 03:01:52;;;;;;;;;;;14.00;99.90;;;;;;5057195;28;19935;-77
2023/08/07 03:04:17;;;;;;;;;;;13.90;99.90;;;;;;5039141;28;19932;-78
2023/08/07 03:06:43;;;;;;;;;;;13.90;99.90;;;;;;5040448;28;19929;-78
2023/08/07 03:09:09;;;;;;;;;;;13.90;99.90;;;;;;5039653;28;19929;-78
2023/08/07 03:11:34;;;;;;;;;;;13.90;99.90;;;;;;5039806;28;19964;-79
2023/08/07 03:14:00;;;;;;;;;;;13.90;99.90;;;;;;5040104;28;19996;-78
2023/08/07 03:16:25;;;;;;;;;;;13.90;99.90;;;;;;5038754;28;19929;-78
2023/08/07 03:18:51;;;;;;;;;;;13.90;99.90;;;;;;5032560;28;20023;-78
2023/08/07 03:21:17;;;;;;;;;;;14.00;99.90;;;;;;5072333;28;19925;-77
2023/08/07 03:23:42;;;;;;;;;;;14.00;99.90;;;;;;5039767;28;19968;-78
2023/08/07 03:26:12;;;;;;;;;;;14.00;99.90;;;;;;5022035;28;19931;-78
2023/08/07 03:28:46;;;;;;;;;;;14.00;99.90;;;;;;5039591;28;19925;-78
2023/08/07 03:31:11;;;;;;;;;;;14.00;99.90;;;;;;5055771;28;20015;-78
2023/08/07 03:33:37;;;;;;;;;;;14.00;99.90;;;;;;5039088;28;20028;-77
2023/08/07 03:36:02;;;;;;;;;;;14.00;99.90;;;;;;5056302;28;19929;-76
2023/08/07 03:38:28;;;;;;;;;;;14.10;99.90;;;;;;5038782;28;19932;-77
2023/08/07 03:40:53;;;;;;;;;;;14.00;99.90;;;;;;5039919;28;20324;-78
2023/08/07 03:43:22;;;;;;;;;;;14.00;99.90;;;;;;5039931;28;19990;-77
2023/08/07 03:45:53;;;;;;;;;;;14.00;99.90;;;;;;5039249;28;19925;-77
2023/08/07 03:48:19;;;;;;;;;;;14.00;99.90;;;;;;5022609;28;19972;-77
2023/08/07 03:50:44;;;;;;;;;;;13.90;99.90;;;;;;5022376;28;19936;-77
2023/08/07 03:53:10;;;;;;;;;;;13.90;99.90;;;;;;5056129;28;19932;-77
2023/08/07 03:55:35;;;;;;;;;;;13.90;99.90;;;;;;5038110;28;19965;-77
2023/08/07 03:58:01;;;;;;;;;;;13.90;99.90;;;;;;5038149;28;19926;-78
2023/08/07 04:00:27;;;;;;;;;;;13.90;99.90;;;;;;5021534;28;19932;-77
2023/08/07 04:02:53;;;;;;;;;;;14.00;99.90;;;;;;5038930;28;19925;-77
2023/08/07 04:05:18;;;;;;;;;;;14.00;99.90;;;;;;5055236;28;19933;-77
2023/08/07 04:07:44;;;;;;;;;;;14.00;99.90;;;;;;5038356;28;19925;-77
2023/08/07 04:10:09;;;;;;;;;;;14.10;99.90;;;;;;5039097;28;19931;-76
2023/08/07 04:12:35;;;;;;;;;;;14.10;99.90;;;;;;5021482;28;20032;-76
2023/08/07 04:15:01;;;;;;;;;;;14.20;99.90;;;;;;5055806;28;19948;-76
2023/08/07 04:17:26;;;;;;;;;;;14.20;99.90;;;;;;5037654;28;19929;-76
2023/08/07 04:19:52;;;;;;;;;;;14.20;99.90;;;;;;5038840;28;19940;-76
2023/08/07 04:22:17;;;;;;;;;;;14.20;99.90;;;;;;5038138;28;19999;-76
2023/08/07 04:24:43;;;;;;;;;;;14.20;99.90;;;;;;5038457;28;19929;-75
2023/08/07 04:27:09;;;;;;;;;;;14.20;99.90;;;;;;5038653;28;19948;-75
2023/08/07 04:29:35;;;;;;;;;;;14.20;99.90;;;;;;5021372;28;19925;-75
2023/08/07 04:32:00;;;;;;;;;;;14.30;99.90;;;;;;5038911;28;19968;-76
2023/08/07 04:34:26;;;;;;;;;;;14.20;99.90;;;;;;5037327;28;19929;-75
2023/08/07 04:36:53;;;;;;;;;;;14.30;99.90;;;;;;5038820;28;19972;-76
2023/08/07 04:39:20;;;;;;;;;;;14.20;99.90;;;;;;5037678;28;19949;-76
2023/08/07 04:41:45;;;;;;;;;;;14.20;99.90;;;;;;5037988;28;19940;-75
2023/08/07 04:44:11;;;;;;;;;;;14.30;99.90;;;;;;5055354;28;19925;-76
2023/08/07 04:46:37;;;;;;;;;;;14.30;99.90;;;;;;5036976;28;19925;-76
2023/08/07 04:49:03;;;;;;;;;;;14.30;99.90;;;;;;5054953;28;19929;-76
2023/08/07 04:51:29;;;;;;;;;;;14.30;99.90;;;;;;5037278;28;20408;-75
2023/08/07 04:53:56;;;;;;;;;;;14.30;99.90;;;;;;5038110;28;20559;-76
2023/08/07 04:56:22;;;;;;;;;;;14.30;99.90;;;;;;5038913;28;19940;-76
2023/08/07 04:58:47;;;;;;;;;;;14.20;99.90;;;;;;5037545;28;20319;-76
2023/08/07 05:01:13;;;;;;;;;;;14.30;99.90;;;;;;5038099;28;20404;-75
2023/08/07 05:03:39;;;;;;;;;;;14.30;99.90;;;;;;5037054;28;19925;-76
2023/08/07 05:06:05;;;;;;;;;;;14.40;99.90;;;;;;5038291;28;19925;-76
2023/08/07 05:08:31;;;;;;;;;;;14.50;99.90;;;;;;5036456;28;19949;-76
2023/08/07 05:10:56;;;;;;;;;;;14.60;99.90;;;;;;5037819;28;19973;-76
2023/08/07 05:13:22;;;;;;;;;;;14.70;99.90;;;;;;5037087;28;19936;-76
2023/08/07 05:15:48;;;;;;;;;;;14.70;99.90;;;;;;5037527;28;19925;-75
2023/08/07 05:18:14;;;;;;;;;;;14.70;99.90;;;;;;5037382;28;19925;-76
2023/08/07 05:20:39;;;;;;;;;;;14.70;99.90;;;;;;5025703;28;20076;-76
2023/08/07 05:23:05;;;;;;;;;;;14.80;99.90;;;;;;5037960;28;20036;-75
2023/08/07 05:25:30;;;;;;;;;;;15.00;99.90;;;;;;5036858;28;20304;-75
2023/08/07 05:27:56;;;;;;;;;;;15.00;99.90;;;;;;5037430;28;19931;-76
2023/08/07 05:30:22;;;;;;;;;;;15.00;99.90;;;;;;5036613;28;20003;-77
2023/08/07 05:32:47;;;;;;;;;;;15.00;99.90;;;;;;5020983;28;19933;-75
2023/08/07 05:35:13;;;;;;;;;;;14.90;99.90;;;;;;5037333;28;20001;-76
2023/08/07 05:37:38;;;;;;;;;;;14.80;99.90;;;;;;5036924;28;19929;-75
2023/08/07 05:40:04;;;;;;;;;;;14.80;99.90;;;;;;5054512;28;19925;-76
2023/08/07 05:42:30;;;;;;;;;;;14.80;99.90;;;;;;5037040;28;19932;-75
2023/08/07 05:44:55;;;;;;;;;;;14.70;99.90;;;;;;5037535;28;19972;-75
2023/08/07 05:47:21;;;;;;;;;;;14.80;99.90;;;;;;5052447;28;19988;-75
2023/08/07 05:49:47;;;;;;;;;;;14.70;99.90;;;;;;5037205;28;19925;-75
2023/08/07 05:52:13;;;;;;;;;;;14.70;99.90;;;;;;5037088;28;19929;-75
2023/08/07 05:54:39;;;;;;;;;;;14.70;99.90;;;;;;5020976;28;20534;-76
2023/08/07 05:57:05;;;;;;;;;;;14.70;99.90;;;;;;5037452;28;19953;-76
2023/08/07 05:59:31;;;;;;;;;;;14.70;99.90;;;;;;5036527;28;19979;-76
2023/08/07 06:01:56;;;;;;;;;;;14.70;99.90;;;;;;5037248;28;19940;-75
2023/08/07 06:04:22;;;;;;;;;;;14.80;99.90;;;;;;5036629;28;19929;-75
2023/08/07 06:06:48;;;;;;;;;;;15.00;99.90;;;;;;5037375;28;19948;-75
2023/08/07 06:09:16;;;;;;;;;;;15.30;99.90;;;;;;5036387;28;20004;-75
2023/08/07 06:11:42;;;;;;;;;;;15.80;99.90;;;;;;5037106;28;19934;-75
2023/08/07 06:14:08;;;;;;;;;;;16.20;99.90;;;;;;5037266;28;19993;-75
2023/08/07 06:16:33;;;;;;;;;;;16.70;99.90;;;;;;5036564;28;19987;-76
2023/08/07 06:18:59;;;;;;;;;;;17.20;99.90;;;;;;5025388;28;19988;-76
2023/08/07 06:21:24;;;;;;;;;;;17.60;99.90;;;;;;5038419;28;19925;-75
2023/08/07 06:23:50;;;;;;;;;;;17.90;99.90;;;;;;5041152;28;19929;-76
2023/08/07 06:26:16;;;;;;;;;;;18.10;99.90;;;;;;5023494;28;19929;-76
2023/08/07 06:28:42;;;;;;;;;;;18.50;99.90;;;;;;5040708;28;19933;-77
2023/08/07 06:31:08;;;;;;;;;;;18.70;99.90;;;;;;5041112;28;19932;-77
2023/08/07 06:33:34;;;;;;;;;;;18.60;99.90;;;;;;5040405;28;19925;-77
2023/08/07 06:36:00;;;;;;;;;;;18.20;99.90;;;;;;5040696;28;20306;-76
2023/08/07 06:38:25;;;;;;;;;;;17.80;99.90;;;;;;5039970;28;19941;-76
2023/08/07 06:40:51;;;;;;;;;;;17.30;99.90;;;;;;5040737;28;19991;-75
2023/08/07 06:43:16;;;;;;;;;;;16.80;99.90;;;;;;5039778;28;19932;-76
2023/08/07 06:45:42;;;;;;;;;;;16.40;99.90;;;;;;5074072;28;19929;-74
2023/08/07 06:48:08;;;;;;;;;;;16.10;99.90;;;;;;5039880;28;19968;-75
2023/08/07 06:50:33;;;;;;;;;;;15.80;99.90;;;;;;5040039;28;19988;-75
2023/08/07 06:52:59;;;;;;;;;;;15.50;99.90;;;;;;5041948;28;20040;-75
2023/08/07 06:55:25;;;;;;;;;;;15.30;99.90;;;;;;5072939;28;20388;-75
2023/08/07 06:57:51;;;;;;;;;;;15.10;99.90;;;;;;5040317;28;19931;-74
2023/08/07 07:00:16;;;;;;;;;;;15.10;99.90;;;;;;5039357;28;19996;-75
2023/08/07 07:02:42;;;;;;;;;;;15.00;99.90;;;;;;5057246;28;20024;-76
2023/08/07 07:05:08;;;;;;;;;;;14.90;99.90;;;;;;5039932;28;20453;-75
2023/08/07 07:07:33;;;;;;;;;;;14.90;99.90;;;;;;5056193;28;20014;-76
2023/08/07 07:10:00;;;;;;;;;;;15.00;99.90;;;;;;5040496;28;20020;-76
2023/08/07 07:12:26;;;;;;;;;;;15.00;99.90;;;;;;5039035;28;20308;-76
2023/08/07 07:14:52;;;;;;;;;;;15.30;99.90;;;;;;5040208;28;20419;-76
2023/08/07 07:17:17;;;;;;;;;;;15.60;99.90;;;;;;5038647;28;19925;-76
2023/08/07 07:19:43;;;;;;;;;;;16.10;99.90;;;;;;5032830;28;19964;-76
2023/08/07 07:22:08;;;;;;;;;;;16.30;99.90;;;;;;5032769;28;19936;-76
2023/08/07 07:24:34;;;;;;;;;;;16.40;99.90;;;;;;5073017;28;19925;-76
2023/08/07 07:26:59;;;;;;;;;;;16.50;99.90;;;;;;5041363;28;19992;-76
2023/08/07 07:29:25;;;;;;;;;;;16.80;99.90;;;;;;5039130;28;20369;-76
2023/08/07 07:31:51;;;;;;;;;;;16.90;99.90;;;;;;5039556;28;19929;-76
2023/08/07 07:34:16;;;;;;;;;;;17.00;99.90;;;;;;5039910;28;19979;-76
2023/08/07 07:36:42;;;;;;;;;;;16.90;99.90;;;;;;5039986;28;20006;-76
2023/08/07 07:39:07;;;;;;;;;;;16.90;99.90;;;;;;5039092;28;19929;-76
2023/08/07 07:41:33;;;;;;;;;;;16.90;99.90;;;;;;5037410;28;20003;-77
2023/08/07 07:43:59;;;;;;;;;;;17.40;99.90;;;;;;5039412;28;19968;-76
2023/08/07 07:46:25;;;;;;;;;;;18.10;99.90;;;;;;5021763;28;19929;-76
2023/08/07 07:48:51;;;;;;;;;;;18.70;99.90;;;;;;5022806;28;19928;-76
2023/08/07 07:51:17;;;;;;;;;;;19.20;99.90;;;;;;5038308;28;19925;-76
2023/08/07 07:53:42;;;;;;;;;;;19.60;99.90;;;;;;5038918;28;20020;-76
2023/08/07 07:56:08;;;;;;;;;;;20.00;99.90;;;;;;5029748;28;19932;-77
2023/08/07 07:58:33;;;;;;;;;;;19.70;99.90;;;;;;5067271;28;19936;-78
2023/08/07 08:00:59;;;;;;;;;;;19.10;99.90;;;;;;5039146;28;19936;-78
2023/08/07 08:03:25;;;;;;;;;;;18.40;99.90;;;;;;5022107;28;19932;-78
2023/08/07 08:05:51;;;;;;;;;;;17.80;99.90;;;;;;5039042;28;19932;-77
2023/08/07 08:08:17;;;;;;;;;;;17.50;99.90;;;;;;5038310;28;19941;-77
2023/08/07 08:10:43;;;;;;;;;;;17.30;99.90;;;;;;5022359;28;19984;-78
2023/08/07 08:13:09;;;;;;;;;;;17.20;99.90;;;;;;5038184;28;19983;-81
2023/08/07 08:15:34;;;;;;;;;;;17.20;99.90;;;;;;5038671;28;19935;-78
2023/08/07 08:18:00;;;;;;;;;;;17.20;99.90;;;;;;5038377;28;20027;-78
2023/08/07 08:20:26;;;;;;;;;;;17.10;99.90;;;;;;5038300;28;19937;-79
2023/08/07 08:22:51;;;;;;;;;;;17.20;99.90;;;;;;5039016;28;19925;-80
2023/08/07 08:25:20;;;;;;;;;;;17.50;99.90;;;;;;5038087;28;19948;-80
2023/08/07 08:27:45;;;;;;;;;;;18.10;99.90;;;;;;5038674;28;19925;-79
2023/08/07 08:30:11;;;;;;;;;;;18.60;99.90;;;;;;5037973;28;19925;-79
2023/08/07 08:32:37;;;;;;;;;;;19.00;99.90;;;;;;5038834;28;20399;-82
2023/08/07 08:35:03;;;;;;;;;;;19.20;99.90;;;;;;5038411;28;19936;-80
2023/08/07 08:37:29;;;;;;;;;;;19.20;99.90;;;;;;5037925;28;19993;-79
2023/08/07 08:39:54;;;;;;;;;;;19.10;99.90;;;;;;5022117;28;19925;-76
2023/08/07 08:42:20;;;;;;;;;;;18.80;99.90;;;;;;5021647;28;19936;-75
2023/08/07 08:44:51;;;;;;;;;;;18.10;99.90;;;;;;5038156;28;19925;-79
2023/08/07 08:47:17;;;;;;;;;;;17.50;99.90;;;;;;5037117;28;19925;-79
2023/08/07 08:49:47;;;;;;;;;;;16.90;99.90;;;;;;5038352;28;19936;-77
2023/08/07 08:52:12;;;;;;;;;;;16.50;99.90;;;;;;5037804;28;19941;-77
2023/08/07 08:54:38;;;;;;;;;;;16.30;99.90;;;;;;5021572;28;19960;-78
2023/08/07 08:57:05;;;;;;;;;;;16.30;99.90;;;;;;5054951;28;19928;-77
2023/08/07 08:59:30;;;;;;;;;;;16.30;99.90;;;;;;5036906;28;19979;-75
2023/08/07 09:01:56;;;;;;;;;;;16.30;99.90;;;;;;5037974;28;20313;-78
2023/08/07 09:04:22;;;;;;;;;;;16.30;99.90;;;;;;5036943;28;19936;-76
2023/08/07 09:06:48;;;;;;;;;;;16.20;99.90;;;;;;5021391;28;19969;-75
2023/08/07 09:09:13;;;;;;;;;;;16.20;99.90;;;;;;5036924;28;19925;-77
2023/08/07 09:11:41;;;;;;;;;;;16.10;99.90;;;;;;5037668;28;20489;-76
2023/08/07 09:14:07;;;;;;;;;;;16.20;99.90;;;;;;5021408;28;20301;-79
2023/08/07 09:16:33;;;;;;;;;;;16.50;99.90;;;;;;5053160;28;20046;-76
2023/08/07 09:18:58;;;;;;;;;;;17.10;99.90;;;;;;5037812;28;19925;-77
2023/08/07 09:21:24;;;;;;;;;;;17.70;99.90;;;;;;5070249;28;19932;-77
2023/08/07 09:23:51;;;;;;;;;;;18.20;99.90;;;;;;5021418;28;19964;-79
2023/08/07 09:26:21;;;;;;;;;;;18.70;99.90;;;;;;5053766;28;19971;-81
2023/08/07 09:28:46;;;;;;;;;;;19.00;99.90;;;;;;5037027;28;20180;-78
2023/08/07 09:31:14;;;;;;;;;;;19.20;99.90;;;;;;5037243;28;19933;-76
2023/08/07 09:33:40;;;;;;;;;;;19.40;99.90;;;;;;5036938;28;19964;-76
2023/08/07 09:36:06;;;;;;;;;;;19.60;99.90;;;;;;5037789;28;19952;-76
2023/08/07 09:38:32;;;;;;;;;;;19.90;99.90;;;;;;5032231;28;19988;-76
2023/08/07 09:40:59;;;;;;;;;;;20.20;99.90;;;;;;5070838;28;19964;-76
2023/08/07 09:43:24;;;;;;;;;;;20.40;99.90;;;;;;5036706;28;19988;-78
2023/08/07 09:45:50;;;;;;;;;;;20.50;99.90;;;;;;5037193;28;19965;-77
2023/08/07 09:48:22;;;;;;;;;;;20.70;99.90;;;;;;5036523;28;19932;-75
2023/08/07 09:50:48;;;;;;;;;;;20.60;99.90;;;;;;5036614;28;19932;-77
2023/08/07 09:53:13;;;;;;;;;;;20.30;99.90;;;;;;5054234;28;19964;-80
2023/08/07 09:55:39;;;;;;;;;;;20.00;99.90;;;;;;5020838;28;20008;-81
2023/08/07 09:58:06;;;;;;;;;;;19.40;99.90;;;;;;5041601;28;19964;-85
2023/08/07 10:00:35;;;;;;;;;;;19.00;99.90;;;;;;5024292;28;19975;-82
2023/08/07 10:03:01;;;;;;;;;;;18.60;99.90;;;;;;5041007;28;19964;-82
2023/08/07 10:05:27;;;;;;;;;;;18.40;99.90;;;;;;5041221;28;19925;-80
2023/08/07 10:07:54;;;;;;;;;;;18.60;99.90;;;;;;5040420;28;19992;-80
2023/08/07 10:10:20;;;;;;;;;;;19.00;99.90;;;;;;5041576;28;19925;-76
2023/08/07 10:12:47;;;;;;;;;;;19.40;99.90;;;;;;5042675;28;19984;-79
2023/08/07 10:15:14;;;;;;;;;;;19.70;99.90;;;;;;5041557;28;19972;-79
2023/08/07 10:17:40;;;;;;;;;;;20.00;99.90;;;;;;5023376;28;19987;-82
2023/08/07 10:20:07;;;;;;;;;;;20.20;99.90;;;;;;5008029;28;20011;-81
2023/08/07 10:22:38;;;;;;;;;;;20.30;99.90;;;;;;5042415;28;19932;-79
2023/08/07 10:25:04;;;;;;;;;;;20.50;99.90;;;;;;5023607;28;19936;-81
2023/08/07 10:27:33;;;;;;;;;;;20.70;99.90;;;;;;5040776;28;19927;-80
2023/08/07 10:30:07;;;;;;;;;;;20.50;99.90;;;;;;5024022;28;19929;-78
2023/08/07 10:32:34;;;;;;;;;;;20.00;99.90;;;;;;5042023;28;20395;-78
2023/08/07 10:35:04;;;;;;;;;;;19.70;99.90;;;;;;5040044;28;19940;-79
2023/08/07 10:37:36;;;;;;;;;;;19.40;99.90;;;;;;5040340;28;20738;-80
2023/08/07 10:40:03;;;;;;;;;;;19.40;99.90;;;;;;5060649;28;20559;-77
2023/08/07 10:42:33;;;;;;;;;;;19.50;99.90;;;;;;5039530;28;20345;-79
2023/08/07 10:45:00;;;;;;;;;;;19.50;99.90;;;;;;5023853;28;20418;-80
2023/08/07 10:47:33;;;;;;;;;;;19.20;99.90;;;;;;5039230;28;20335;-80
2023/08/07 10:50:04;;;;;;;;;;;18.90;99.90;;;;;;5024389;28;19932;-79
2023/08/07 10:52:30;;;;;;;;;;;18.70;99.90;;;;;;5056824;28;20308;-79
2023/08/07 10:54:57;;;;;;;;;;;18.40;99.90;;;;;;5039811;28;19932;-79
2023/08/07 10:57:23;;;;;;;;;;;18.20;99.90;;;;;;5056803;28;19992;-78
2023/08/07 10:59:54;;;;;;;;;;;18.30;99.90;;;;;;5054963;28;20559;-78
2023/08/07 11:02:26;;;;;;;;;;;18.60;99.90;;;;;;5058292;28;19929;-80
2023/08/07 11:04:52;;;;;;;;;;;18.80;99.90;;;;;;5039658;28;19926;-78
2023/08/07 11:07:28;;;;;;;;;;;19.20;99.90;;;;;;5022740;28;19936;-79
2023/08/07 11:09:54;;;;;;;;;;;19.60;99.90;;;;;;5040309;28;19925;-80
2023/08/07 11:12:20;;;;;;;;;;;19.80;99.90;;;;;;5022811;28;19925;-81
2023/08/07 11:14:45;;;;;;;;;;;19.80;99.90;;;;;;5056652;28;19929;-80
2023/08/07 11:17:12;;;;;;;;;;;19.60;99.90;;;;;;5071264;28;20032;-77
2023/08/07 11:19:39;;;;;;;;;;;19.40;99.90;;;;;;5023372;28;19925;-78
2023/08/07 11:22:05;;;;;;;;;;;19.20;99.90;;;;;;5039482;28;19929;-78
2023/08/07 11:24:30;;;;;;;;;;;19.00;99.90;;;;;;5039018;28;19935;-80
2023/08/07 11:26:57;;;;;;;;;;;18.90;99.90;;;;;;5040146;28;19929;-79
2023/08/07 11:29:24;;;;;;;;;;;18.80;99.90;;;;;;5038896;28;19967;-78
2023/08/07 11:31:50;;;;;;;;;;;18.60;99.90;;;;;;5039982;28;19953;-78
2023/08/07 11:34:20;;;;;;;;;;;18.70;99.90;;;;;;5038634;28;19936;-78
2023/08/07 11:36:45;;;;;;;;;;;18.70;99.90;;;;;;5039518;28;19925;-79
2023/08/07 11:39:11;;;;;;;;;;;18.80;99.90;;;;;;5039135;28;19932;-77
2023/08/07 11:41:37;;;;;;;;;;;18.70;99.90;;;;;;5039243;28;19940;-81
2023/08/07 11:44:03;;;;;;;;;;;18.70;99.90;;;;;;5039678;28;19929;-73
2023/08/07 11:46:28;;;;;;;;;;;18.80;99.90;;;;;;5038467;28;19925;-84
2023/08/07 11:48:56;;;;;;;;;;;18.90;99.90;;;;;;5039396;28;19929;-83
2023/08/07 11:51:22;;;;;;;;;;;19.20;99.90;;;;;;5039776;28;19925;-77
2023/08/07 11:53:48;;;;;;;;;;;19.50;99.90;;;;;;5022573;28;20434;-77
2023/08/07 11:56:18;;;;;;;;;;;19.70;99.90;;;;;;5005674;28;20381;-77
2023/08/07 11:58:47;;;;;;;;;;;19.80;99.90;;;;;;5022064;28;20388;-77
2023/08/07 12:01:14;;;;;;;;;;;19.80;99.90;;;;;;5055197;28;19936;-76
2023/08/07 12:03:50;;;;;;;;;;;19.70;99.90;;;;;;5038227;28;19933;-78
2023/08/07 12:06:16;;;;;;;;;;;19.50;99.90;;;;;;5039196;28;19925;-78
2023/08/07 12:08:41;;;;;;;;;;;19.30;99.90;;;;;;5021384;28;19975;-76
2023/08/07 12:11:13;;;;;;;;;;;19.30;99.90;;;;;;5038431;28;19940;-77
2023/08/07 12:13:40;;;;;;;;;;;19.30;99.90;;;;;;5022001;28;19929;-75
2023/08/07 12:16:06;;;;;;;;;;;19.50;99.90;;;;;;5037875;28;19936;-78
2023/08/07 12:18:32;;;;;;;;;;;19.80;99.90;;;;;;5037859;28;19929;-74
2023/08/07 12:21:04;;;;;;;;;;;20.10;99.90;;;;;;5037974;28;20007;-73
2023/08/07 12:23:32;;;;;;;;;;;20.40;99.90;;;;;;5038996;28;19925;-81
2023/08/07 12:25:58;;;;;;;;;;;20.50;99.90;;;;;;5037954;28;19939;-81
2023/08/07 12:28:25;;;;;;;;;;;20.30;99.90;;;;;;5038071;28;19968;-77
2023/08/07 12:30:57;;;;;;;;;;;19.90;99.90;;;;;;5040391;28;19932;-80
2023/08/07 12:33:22;;;;;;;;;;;19.60;99.90;;;;;;5054663;28;19929;-81
2023/08/07 12:35:48;;;;;;;;;;;19.40;99.90;;;;;;5038957;28;19925;-86
2023/08/07 12:38:14;;;;;;;;;;;19.30;99.90;;;;;;5070681;28;19925;-83
2023/08/07 12:40:40;;;;;;;;;;;19.30;99.90;;;;;;5038708;28;19975;-84
2023/08/07 12:43:06;;;;;;;;;;;19.30;99.90;;;;;;5020968;28;19935;-82
2023/08/07 12:45:32;;;;;;;;;;;19.20;99.90;;;;;;5038620;28;20011;-79
2023/08/07 12:47:58;;;;;;;;;;;19.10;99.90;;;;;;5037491;28;19929;-82
2023/08/07 12:50:23;;;;;;;;;;;19.30;99.90;;;;;;5054272;28;20020;-78
2023/08/07 12:52:49;;;;;;;;;;;19.30;99.90;;;;;;5038363;28;19984;-78
2023/08/07 12:55:15;;;;;;;;;;;19.20;99.90;;;;;;5036798;28;19960;-78
2023/08/07 12:57:41;;;;;;;;;;;19.00;99.90;;;;;;5021789;28;19947;-77
2023/08/07 13:00:08;;;;;;;;;;;18.80;99.90;;;;;;5053945;28;19929;-79
2023/08/07 13:02:33;;;;;;;;;;;18.60;99.90;;;;;;5038831;28;19924;-80
2023/08/07 13:05:00;;;;;;;;;;;18.10;99.90;;;;;;5037803;28;20479;-77
2023/08/07 13:07:26;;;;;;;;;;;17.60;99.90;;;;;;5053878;28;19940;-76
2023/08/07 13:09:51;;;;;;;;;;;17.10;99.90;;;;;;5021543;28;19929;-76
2023/08/07 13:12:17;;;;;;;;;;;16.90;99.90;;;;;;5037219;28;20008;-76
2023/08/07 13:14:42;;;;;;;;;;;16.70;99.90;;;;;;5038087;28;19940;-76
2023/08/07 13:17:08;;;;;;;;;;;16.60;99.90;;;;;;5036877;28;19952;-78
2023/08/07 13:19:34;;;;;;;;;;;16.50;99.90;;;;;;5057151;28;19940;-78
2023/08/07 13:22:07;;;;;;;;;;;16.40;99.90;;;;;;5037965;28;19991;-77
2023/08/07 13:24:32;;;;;;;;;;;16.30;99.90;;;;;;5037194;28;19929;-76
2023/08/07 13:26:58;;;;;;;;;;;16.10;99.90;;;;;;5037876;28;19936;-79
2023/08/07 13:29:25;;;;;;;;;;;16.00;99.90;;;;;;5053018;28;19925;-75
2023/08/07 13:31:51;;;;;;;;;;;15.90;99.90;;;;;;5037349;28;19929;-75
2023/08/07 13:34:17;;;;;;;;;;;15.80;99.90;;;;;;5020334;28;19932;-76
2023/08/07 13:36:42;;;;;;;;;;;15.80;99.90;;;;;;5037667;28;19929;-77
2023/08/07 13:39:08;;;;;;;;;;;15.90;99.90;;;;;;5037179;28;19929;-77
2023/08/07 13:41:34;;;;;;;;;;;15.90;99.90;;;;;;5037092;28;20394;-76
2023/08/07 13:44:00;;;;;;;;;;;16.00;99.90;;;;;;5037735;28;19925;-77
2023/08/07 13:46:26;;;;;;;;;;;16.10;99.90;;;;;;5019584;28;19995;-77
2023/08/07 13:48:51;;;;;;;;;;;16.30;99.90;;;;;;5037367;28;19944;-77
2023/08/07 13:51:20;;;;;;;;;;;16.60;99.90;;;;;;5036708;28;19929;-75
2023/08/07 13:53:46;;;;;;;;;;;16.80;99.90;;;;;;5021085;28;19929;-76
2023/08/07 13:56:12;;;;;;;;;;;16.80;99.90;;;;;;5053816;28;19932;-77
2023/08/07 13:58:38;;;;;;;;;;;16.80;99.90;;;;;;5037191;28;19925;-77
2023/08/07 14:01:04;;;;;;;;;;;16.80;99.90;;;;;;5037461;28;19936;-76
2023/08/07 14:03:30;;;;;;;;;;;16.80;99.90;;;;;;5036716;28;19929;-76
2023/08/07 14:05:55;;;;;;;;;;;16.80;99.90;;;;;;5037642;28;19929;-76
2023/08/07 14:08:21;;;;;;;;;;;16.90;99.90;;;;;;5036342;28;19937;-77
2023/08/07 14:10:47;;;;;;;;;;;16.90;99.90;;;;;;5037385;28;19925;-76